x

North Equatorial Two - 890 Nm East Of Martinique (41041) Wave Buoy

10:50pm - Tue 29th Jul 2014 All times are UTC.

  • Sig Wave height 4.9ft
  • Swell Direction
  • Peak Period 10s
  • Average Period 5s
  • Wind
    16mph, 18mph gusts
  • Sea Temp 80°f
  • Air Temp 80°f
  • Sea Pressure 1016.9mb

More Historic Weather Station data

Upgrade to MSW Pro to gain access to the past 30 days of data for over 8000 Wavebouys and Weather Stations around the globe.

Join Pro

Comparision Forecast

View Surf forecast
   
Tue 07/29 10:50pm 5ft 10s 5s 16 18 mph 1016.9mb 80f 80f
9:50pm 4.5ft 10s 5s 16 20 mph 1016.4mb 80f 80f
8:50pm 4.5ft 11s 6s 16 18 mph 1016.1mb 80f 80f
7:50pm 4.5ft 11s 5s 16 18 mph 1016.1mb 80f 80f
6:50pm 4.5ft 9s 5s 16 18 mph 1016.1mb 80f 79f
5:50pm 4.5ft 10s 5s 16 18 mph 1016.5mb 80f 79f
4:50pm 4.5ft 11s 6s 13 18 mph 1016.9mb 80f 79f
3:50pm 4.5ft 9s 6s 11 13 mph 1017.5mb 80f 78f
2:50pm 4.5ft 11s 6s 9 11 mph 1018mb 80f 77f
1:50pm 4ft 10s 5s 16 18 mph 1018.3mb 80f 76f
12:50pm 4.5ft 11s 6s 9 11 mph 1018.5mb 80f 77f
11:50am 4.5ft 10s 6s 4 9 mph 1018.4mb 80f 76f
10:50am 4ft 11s 6s 11 13 mph 1017.9mb 80f 78f
9:50am 4.5ft 9s 5s 11 16 mph 1017.6mb 80f 78f
8:50am 4ft 8s 5s 13 16 mph 1017.2mb 80f 78f
7:50am 4.5ft 8s 6s 13 16 mph 1017.1mb 80f 78f
6:50am 4.5ft 8s 5s 13 16 mph 1016.9mb 80f 78f
5:50am 4.5ft 8s 5s 13 16 mph 1017.1mb 80f 78f
4:50am 4.5ft 9s 6s 13 16 mph 1017.5mb 80f 78f
3:50am 4ft 8s 5s 13 16 mph 1018.2mb 80f 78f
2:50am 4ft 8s 5s 16 18 mph 1018.9mb 80f 78f
1:50am 4ft 6s 5s 13
mph
1019.4mb 80f 78f
12:50am 4ft 8s 5s 13 18 mph 1019.4mb 80f 79f
Mon 07/28 11:50pm 4ft 6s 5s 13 16 mph 1018.7mb 80f 79f
10:50pm 4.5ft 9s 5s 13 16 mph 1018.1mb 80f 79f
9:50pm 4ft 9s 5s 13 18 mph 1017.6mb 80f 79f
8:50pm 4.5ft 9s 5s 13 16 mph 1017.3mb 80f 79f
7:50pm 4.5ft 9s 5s 16 18 mph 1017.1mb 80f 79f
6:50pm 4.5ft 8s 5s 16 18 mph 1017mb 80f 79f
5:50pm 4.5ft 8s 5s 16 18 mph 1017.3mb 80f 79f
4:50pm 4.5ft 8s 5s 16 18 mph 1017.8mb 80f 79f
3:50pm 4.5ft 8s 5s 16 18 mph 1018.4mb 80f 79f
2:50pm 4.5ft 8s 5s 16 18 mph 1018.8mb 80f 79f
1:50pm 4.5ft 8s 5s 13 18 mph 1018.9mb 80f 79f
12:50pm 4.5ft 7s 5s 16 18 mph 1019mb 80f 79f
11:50am 4.5ft 8s 5s 13 18 mph 1018.7mb 80f 78f
10:50am 4.5ft 9s 5s 13 18 mph 1018.1mb 80f 78f
9:50am 4.5ft 8s 5s 16 18 mph 1017.8mb 80f 78f
8:50am 4.5ft 6s 5s 13 16 mph 1017.3mb 80f 78f
7:50am 4.5ft 7s 5s 16 18 mph 1016.9mb 80f 78f
6:50am 5ft 8s 5s 16 18 mph 1016.8mb 80f 78f
5:50am 4.5ft 8s 5s 16 18 mph 1016.8mb 80f 78f
4:50am 5ft 7s 6s 16 18 mph 1017.1mb 80f 78f
3:50am 5ft 7s 6s 16 18 mph 1017.9mb 80f 79f
1:50am 4.5ft 8s 6s 13 18 mph 1019mb 80f 79f
12:50am 5ft 7s 6s 16 18 mph 1018.7mb 80f 79f
Sun 07/27 11:50pm 5ft 7s 6s 16 18 mph 1018mb 80f 79f
10:50pm 5ft 7s 6s 16 18 mph 1017.3mb 80f 79f
9:50pm 5ft 6s 6s 13 18 mph 1016.7mb 80f 79f
8:50pm 4.5ft 7s 6s 13 18 mph 1016.1mb 80f 79f
7:50pm 4.5ft 8s 6s 13 16 mph 1015.7mb 80f 79f
6:50pm 5ft 8s 6s 16 18 mph 1015.3mb 80f 79f
5:50pm 5ft 7s 6s 16 20 mph 1015.7mb 80f 79f
4:50pm 5ft 7s 6s 13 16 mph 1016.2mb 80f 79f
3:50pm 4.5ft 7s 6s 13 16 mph 1017mb 80f 79f
2:50pm 5ft 8s 6s 11 13 mph 1017.3mb 80f 79f
1:50pm 5ft 7s 6s 11 13 mph 1017.5mb 80f 79f
12:50pm 5.5ft 9s 6s 11 13 mph 1017.5mb 80f 79f
11:50am 5ft 7s 6s 13 18 mph 1017.2mb 80f 79f
10:50am 5ft 6s 6s 13 18 mph 1016.5mb 80f 79f
9:50am 5ft 8s 6s 13 16 mph 1016.2mb 80f 78f
8:50am 5ft 9s 6s 16 18 mph 1015.6mb 80f 78f
7:50am 5ft 7s 5s 13 16 mph 1015.1mb 80f 79f
6:50am 5ft 7s 6s 13 18 mph 1014.9mb 80f 78f
5:50am 5ft 7s 5s 13 16 mph 1015mb 80f 78f
4:50am 5ft 8s 5s 16 18 mph 1014.9mb 80f 78f
3:50am 5ft 9s 6s 18 20 mph 1015.3mb 80f 79f
2:50am 5ft 8s 6s 18 20 mph 1016.2mb 80f 79f
1:50am 4.5ft 7s 5s 13 16 mph 1016.7mb 80f 78f
12:50am 5ft 7s 6s 13 18 mph 1016.3mb 80f 78f
Sat 07/26 11:50pm 5ft 7s 5s 16 18 mph 1015.8mb 80f 79f
10:50pm 5ft 7s 6s 16 20 mph 1014.8mb 80f 79f
9:50pm 6ft 6s 6s 13 18 mph 1014.4mb 80f 79f
8:50pm 5ft 6s 5s 16 18 mph 1013.9mb 80f 79f
7:50pm 5ft 7s 5s 13 16 mph 1013.7mb 80f 79f
6:50pm 5.5ft 7s 5s 16 20 mph 1013.6mb 80f 80f
5:50pm 5.5ft 6s 5s 20 22 mph 1013.8mb 80f 78f
4:50pm 5ft 7s 5s 16 20 mph 1014.3mb 80f 80f
3:50pm 5.5ft 6s 5s 18 22 mph 1014.7mb 80f 79f
2:50pm 5.5ft 7s 6s 13 18 mph 1015.4mb 80f 79f
1:50pm 5.5ft 8s 6s 16 18 mph 1015.6mb 80f 79f
12:50pm 5.5ft 8s 5s 16 20 mph 1015.6mb 79f 79f
11:50am 6ft 7s 5s 22 27 mph 1015.2mb 79f 78f
10:50am 5.5ft 7s 6s 18 22 mph 1015.1mb 79f 79f
9:50am 5.5ft 7s 5s 18 20 mph 1014.7mb 79f 79f
8:50am 6ft 8s 6s 16 20 mph 1014.2mb 79f 78f
7:50am 5.5ft 7s 5s 20 25 mph 1013.5mb 79f 78f
6:50am 6ft 6s 6s 22 25 mph 1013mb 79f 78f
5:50am 6ft 8s 5s 18 22 mph 1014.2mb 79f 79f
4:50am 5ft 8s 5s 13 18 mph 1015mb 79f 78f
3:50am 6ft 7s 6s 18 25 mph 1016.1mb 79f 77f
2:50am 6ft 8s 6s 16 18 mph 1016.9mb 79f 79f
1:50am 6ft 8s 5s 18 20 mph 1017.1mb 79f 79f
12:50am 6ft 8s 6s 18 22 mph 1016.7mb 79f 79f